createdAt,value
2019-01-04T00:00:36.621Z,-2.96
2019-01-04T00:01:36.598Z,-2.88
2019-01-04T00:02:36.683Z,-2.94
2019-01-04T00:03:36.544Z,-2.96
2019-01-04T00:04:36.508Z,-2.96
2019-01-04T00:05:36.562Z,-2.89
2019-01-04T00:06:36.502Z,-2.91
2019-01-04T00:07:36.477Z,-2.97
2019-01-04T00:08:36.495Z,-2.85
2019-01-04T00:09:36.477Z,-2.91
2019-01-04T00:10:36.462Z,-2.86
2019-01-04T00:11:36.472Z,-2.92
2019-01-04T00:12:36.470Z,-2.85
2019-01-04T00:13:36.443Z,-2.91
2019-01-04T00:14:36.403Z,-2.96
2019-01-04T00:15:36.384Z,-2.85
2019-01-04T00:16:36.399Z,-2.86
2019-01-04T00:17:36.396Z,-2.89
2019-01-04T00:18:36.353Z,-2.97
2019-01-04T00:19:36.356Z,-2.91
2019-01-04T00:20:36.341Z,-2.96
2019-01-04T00:21:36.343Z,-3.00
2019-01-04T00:22:36.334Z,-2.92
2019-01-04T00:23:36.307Z,-2.94
2019-01-04T00:24:36.314Z,-3.03
2019-01-04T00:25:36.295Z,-2.91
2019-01-04T00:26:36.309Z,-2.99
2019-01-04T00:27:36.284Z,-3.02
2019-01-04T00:28:36.263Z,-3.02
2019-01-04T00:29:36.246Z,-3.02
2019-01-04T00:30:36.240Z,-3.09
2019-01-04T00:31:36.209Z,-3.02
2019-01-04T00:32:36.230Z,-3.09
2019-01-04T00:33:36.213Z,-3.06
2019-01-04T00:34:36.200Z,-3.07
2019-01-04T00:35:36.164Z,-3.03
2019-01-04T00:36:36.164Z,-3.03
2019-01-04T00:37:36.166Z,-3.07
2019-01-04T00:38:36.229Z,-3.03
2019-01-04T00:39:36.108Z,-3.00
2019-01-04T00:40:36.114Z,-3.02
2019-01-04T00:41:36.101Z,-3.10
2019-01-04T00:42:36.105Z,-3.18
2019-01-04T00:43:36.139Z,-3.07
2019-01-04T00:44:36.065Z,-3.03
2019-01-04T00:45:36.104Z,-3.18
2019-01-04T00:46:36.057Z,-3.18
2019-01-04T00:47:36.036Z,-3.12
2019-01-04T00:48:36.036Z,-3.21
2019-01-04T00:49:36.057Z,-3.24
2019-01-04T00:50:36.016Z,-3.20
2019-01-04T00:51:36.031Z,-3.23
2019-01-04T00:52:35.982Z,-3.24
2019-01-04T00:53:35.991Z,-3.24
2019-01-04T00:54:35.957Z,-3.21
2019-01-04T00:55:35.943Z,-3.23
2019-01-04T00:56:35.953Z,-3.06
2019-01-04T00:57:35.932Z,-3.07
2019-01-04T00:58:35.925Z,-3.20
2019-01-04T00:59:35.923Z,-3.17
2019-01-04T01:00:35.880Z,-3.12
2019-01-04T01:01:35.880Z,-3.03
2019-01-04T01:02:35.901Z,-3.06
2019-01-04T01:03:35.872Z,-3.00
2019-01-04T01:04:35.847Z,-3.15
2019-01-04T01:05:35.862Z,-3.15
2019-01-04T01:06:35.820Z,-3.14
2019-01-04T01:07:35.809Z,-3.15
2019-01-04T01:08:35.802Z,-3.17
2019-01-04T01:09:35.805Z,-3.15
2019-01-04T01:10:35.789Z,-3.21
2019-01-04T01:11:35.775Z,-3.24
2019-01-04T01:12:35.773Z,-3.09
2019-01-04T01:13:35.754Z,-3.21
2019-01-04T01:14:35.759Z,-3.25
2019-01-04T01:15:35.766Z,-3.25
2019-01-04T01:16:35.724Z,-3.18
2019-01-04T01:17:35.702Z,-3.23
2019-01-04T01:18:35.685Z,-3.24
2019-01-04T01:19:35.705Z,-3.23
2019-01-04T01:20:35.655Z,-3.21
2019-01-04T01:21:35.647Z,-3.23
2019-01-04T01:22:35.680Z,-3.21
2019-01-04T01:23:35.640Z,-3.23
2019-01-04T01:24:35.670Z,-3.14
2019-01-04T01:25:35.603Z,-3.23
2019-01-04T01:26:35.593Z,-3.12
2019-01-04T01:27:35.587Z,-3.25
2019-01-04T01:28:35.601Z,-3.21
2019-01-04T01:29:35.567Z,-3.23
2019-01-04T01:30:35.609Z,-3.15
2019-01-04T01:31:35.542Z,-3.20
2019-01-04T01:32:35.539Z,-3.15
2019-01-04T01:33:35.531Z,-3.20
2019-01-04T01:34:35.527Z,-3.20
2019-01-04T01:35:35.514Z,-3.25
2019-01-04T01:36:35.508Z,-3.24
2019-01-04T01:37:35.505Z,-3.21
2019-01-04T01:38:35.557Z,-3.24
2019-01-04T01:39:35.444Z,-3.33
2019-01-04T01:40:35.500Z,-3.21
2019-01-04T01:41:35.448Z,-3.27
2019-01-04T01:42:35.450Z,-3.30
2019-01-04T01:43:35.406Z,-3.27
2019-01-04T01:44:35.408Z,-3.36
2019-01-04T01:45:35.397Z,-3.23
2019-01-04T01:46:35.383Z,-3.24
2019-01-04T01:47:35.390Z,-3.23
2019-01-04T01:48:35.377Z,-3.23
2019-01-04T01:49:35.371Z,-3.27
2019-01-04T01:50:35.332Z,-3.33
2019-01-04T01:51:35.337Z,-3.46
2019-01-04T01:52:35.314Z,-3.42
2019-01-04T01:53:35.331Z,-3.42
2019-01-04T01:54:35.282Z,-3.39
2019-01-04T01:55:35.289Z,-3.46
2019-01-04T01:56:35.303Z,-3.52
2019-01-04T01:57:35.265Z,-3.59
2019-01-04T01:58:35.251Z,-3.46
2019-01-04T01:59:35.280Z,-3.62
2019-01-04T02:00:35.278Z,-3.57
2019-01-04T02:01:35.223Z,-3.52
2019-01-04T02:02:35.227Z,-3.59
2019-01-04T02:03:35.219Z,-3.62
2019-01-04T02:04:35.211Z,-3.71
2019-01-04T02:05:35.273Z,-3.76
2019-01-04T02:06:35.187Z,-3.71
2019-01-04T02:07:35.312Z,-3.67
2019-01-04T02:08:35.111Z,-3.75
2019-01-04T02:09:35.128Z,-3.64
2019-01-04T02:10:35.100Z,-3.64
2019-01-04T02:11:35.102Z,-3.62
2019-01-04T02:12:35.094Z,-3.56
2019-01-04T02:13:35.063Z,-3.69
2019-01-04T02:14:35.051Z,-3.71
2019-01-04T02:15:35.044Z,-3.75
2019-01-04T02:16:35.043Z,-3.67
2019-01-04T02:17:35.044Z,-3.72
2019-01-04T02:18:35.011Z,-3.69
2019-01-04T02:19:34.992Z,-3.79
2019-01-04T02:20:34.988Z,-3.69
2019-01-04T02:21:34.987Z,-3.54
2019-01-04T02:22:34.956Z,-3.64
2019-01-04T02:23:34.978Z,-3.52
2019-01-04T02:24:34.938Z,-3.59
2019-01-04T02:25:34.932Z,-3.53
2019-01-04T02:26:34.925Z,-3.60
2019-01-04T02:27:34.906Z,-3.54
2019-01-04T02:28:34.896Z,-3.63
2019-01-04T02:29:34.907Z,-3.52
2019-01-04T02:30:34.873Z,-3.53
2019-01-04T02:31:34.886Z,-3.56
2019-01-04T02:32:34.859Z,-3.56
2019-01-04T02:33:34.841Z,-3.38
2019-01-04T02:34:34.832Z,-3.52
2019-01-04T02:35:34.891Z,-3.46
2019-01-04T02:36:34.813Z,-3.39
2019-01-04T02:37:34.810Z,-3.46
2019-01-04T02:38:34.792Z,-3.38
2019-01-04T02:39:34.781Z,-3.45
2019-01-04T02:40:34.760Z,-3.38
2019-01-04T02:41:34.768Z,-3.39
2019-01-04T02:42:34.781Z,-3.42
2019-01-04T02:43:34.733Z,-3.48
2019-01-04T02:44:34.717Z,-3.31
2019-01-04T02:45:34.699Z,-3.42
2019-01-04T02:46:34.693Z,-3.31
2019-01-04T02:47:34.709Z,-3.33
2019-01-04T02:48:34.696Z,-3.46
2019-01-04T02:49:34.667Z,-3.39
2019-01-04T02:50:34.660Z,-3.35
2019-01-04T02:51:34.638Z,-3.25
2019-01-04T02:52:34.635Z,-3.31
2019-01-04T02:53:34.637Z,-3.27
2019-01-04T02:54:34.621Z,-3.31
2019-01-04T02:55:34.599Z,-3.27
2019-01-04T02:56:34.578Z,-3.38
2019-01-04T02:57:34.577Z,-3.25
2019-01-04T02:58:34.565Z,-3.35
2019-01-04T02:59:34.581Z,-3.21
2019-01-04T03:00:34.541Z,-3.23
2019-01-04T03:01:34.532Z,-3.25
2019-01-04T03:02:34.517Z,-3.18
2019-01-04T03:03:34.515Z,-3.12
2019-01-04T03:04:34.509Z,-3.14
2019-01-04T03:05:34.512Z,-3.18
2019-01-04T03:06:34.476Z,-3.15
2019-01-04T03:07:34.461Z,-3.28
2019-01-04T03:08:34.453Z,-3.23
2019-01-04T03:09:34.474Z,-3.23
2019-01-04T03:10:34.445Z,-3.20
2019-01-04T03:11:34.436Z,-3.15
2019-01-04T03:12:34.406Z,-3.21
2019-01-04T03:13:34.398Z,-3.25
2019-01-04T03:14:34.390Z,-3.20
2019-01-04T03:15:34.396Z,-3.20
2019-01-04T03:16:34.418Z,-3.21
2019-01-04T03:17:34.368Z,-3.17
2019-01-04T03:18:34.342Z,-3.24
2019-01-04T03:19:34.332Z,-3.18
2019-01-04T03:20:34.321Z,-3.20
2019-01-04T03:21:34.320Z,-3.24
2019-01-04T03:22:34.297Z,-3.18
2019-01-04T03:23:34.304Z,-3.21
2019-01-04T03:24:34.278Z,-3.07
2019-01-04T03:25:34.263Z,-3.20
2019-01-04T03:26:34.260Z,-3.21
2019-01-04T03:27:34.239Z,-3.25
2019-01-04T03:28:34.231Z,-3.20
2019-01-04T03:29:34.239Z,-3.23
2019-01-04T03:30:34.216Z,-3.15
2019-01-04T03:31:34.207Z,-3.17
2019-01-04T03:32:34.184Z,-3.12
2019-01-04T03:33:34.172Z,-3.09
2019-01-04T03:34:34.184Z,-3.20
2019-01-04T03:35:34.146Z,-3.21
2019-01-04T03:36:34.159Z,-3.17
2019-01-04T03:37:34.131Z,-3.10
2019-01-04T03:38:34.123Z,-3.10
2019-01-04T03:39:34.104Z,-3.02
2019-01-04T03:40:34.115Z,-3.03
2019-01-04T03:41:34.084Z,-3.02
2019-01-04T03:42:34.320Z,-3.09
2019-01-04T03:43:34.061Z,-3.03
2019-01-04T03:44:34.086Z,-3.05
2019-01-04T03:45:34.037Z,-3.10
2019-01-04T03:46:34.050Z,-3.03
2019-01-04T03:47:34.024Z,-3.07
2019-01-04T03:48:34.025Z,-2.99
2019-01-04T03:49:33.996Z,-3.07
2019-01-04T03:50:33.996Z,-3.09
2019-01-04T03:51:33.973Z,-3.06
2019-01-04T03:52:33.992Z,-3.09
2019-01-04T03:53:33.959Z,-3.07
2019-01-04T03:54:34.048Z,-3.06
2019-01-04T03:55:33.931Z,-3.06
2019-01-04T03:56:33.917Z,-2.99
2019-01-04T03:57:33.911Z,-3.06
2019-01-04T03:58:33.937Z,-2.99
2019-01-04T03:59:33.884Z,-3.03
2019-01-04T04:00:33.869Z,-3.00
2019-01-04T04:01:33.866Z,-3.05
2019-01-04T04:02:33.854Z,-2.99
2019-01-04T04:03:33.843Z,-3.07
2019-01-04T04:04:33.872Z,-3.06
2019-01-04T04:05:33.828Z,-3.05
2019-01-04T04:06:33.805Z,-3.06
2019-01-04T04:07:33.800Z,-2.96
2019-01-04T04:08:33.793Z,-3.00
2019-01-04T04:09:33.769Z,-3.05
2019-01-04T04:10:33.815Z,-2.96
2019-01-04T04:11:33.754Z,-2.96
2019-01-04T04:12:33.745Z,-3.00
2019-01-04T04:13:33.733Z,-2.99
2019-01-04T04:14:33.727Z,-2.88
2019-01-04T04:15:33.711Z,-2.91
2019-01-04T04:16:33.726Z,-2.99
2019-01-04T04:17:33.682Z,-2.99
2019-01-04T04:18:33.677Z,-2.94
2019-01-04T04:19:33.664Z,-2.99
2019-01-04T04:20:33.652Z,-2.94
2019-01-04T04:21:33.668Z,-2.99
2019-01-04T04:22:33.648Z,-2.99
2019-01-04T04:23:33.616Z,-2.94
2019-01-04T04:24:33.605Z,-2.99
2019-01-04T04:25:33.595Z,-2.96
2019-01-04T04:26:33.581Z,-2.92
2019-01-04T04:27:33.603Z,-3.03
2019-01-04T04:28:33.588Z,-2.86
2019-01-04T04:29:33.553Z,-3.02
2019-01-04T04:30:33.558Z,-3.00
2019-01-04T04:31:33.527Z,-2.97
2019-01-04T04:32:33.519Z,-2.94
2019-01-04T04:33:33.537Z,-2.89
2019-01-04T04:34:33.515Z,-2.85
2019-01-04T04:35:33.485Z,-2.88
2019-01-04T04:36:33.465Z,-2.92
2019-01-04T04:37:33.477Z,-2.97
2019-01-04T04:38:33.462Z,-2.84
2019-01-04T04:39:33.437Z,-2.91
2019-01-04T04:40:33.458Z,-2.91
2019-01-04T04:41:33.416Z,-2.81
2019-01-04T04:42:33.437Z,-2.88
2019-01-04T04:43:33.408Z,-2.91
2019-01-04T04:44:33.387Z,-2.82
2019-01-04T04:45:33.371Z,-2.84
2019-01-04T04:46:33.382Z,-2.73
2019-01-04T04:47:33.347Z,-2.82
2019-01-04T04:48:33.356Z,-2.82
2019-01-04T04:49:33.327Z,-2.79
2019-01-04T04:50:33.319Z,-2.88
2019-01-04T04:51:33.310Z,-2.88
2019-01-04T04:52:33.313Z,-2.84
2019-01-04T04:53:33.302Z,-2.77
2019-01-04T04:54:33.280Z,-2.88
2019-01-04T04:55:33.261Z,-2.82
2019-01-04T04:56:33.256Z,-2.77
2019-01-04T04:57:33.241Z,-2.81
2019-01-04T04:58:33.269Z,-2.86
2019-01-04T04:59:33.214Z,-2.84
2019-01-04T05:00:33.211Z,-2.79
2019-01-04T05:01:33.204Z,-2.71
2019-01-04T05:02:33.188Z,-2.74
2019-01-04T05:03:33.172Z,-2.79
2019-01-04T05:04:33.207Z,-2.74
2019-01-04T05:05:33.143Z,-2.82
2019-01-04T05:06:33.140Z,-2.70
2019-01-04T05:07:33.165Z,-2.67
2019-01-04T05:08:33.119Z,-2.77
2019-01-04T05:09:33.109Z,-2.67
2019-01-04T05:10:33.136Z,-2.68
2019-01-04T05:11:33.082Z,-2.68
2019-01-04T05:12:33.074Z,-2.73
2019-01-04T05:13:33.072Z,-2.68
2019-01-04T05:14:33.045Z,-2.64
2019-01-04T05:15:33.104Z,-2.66
2019-01-04T05:16:33.028Z,-2.63
2019-01-04T05:17:33.023Z,-2.64
2019-01-04T05:18:33.013Z,-2.55
2019-01-04T05:19:32.995Z,-2.61
2019-01-04T05:20:32.985Z,-2.53
2019-01-04T05:21:33.000Z,-2.61
2019-01-04T05:22:32.962Z,-2.61
2019-01-04T05:23:32.969Z,-2.63
2019-01-04T05:24:32.936Z,-2.53
2019-01-04T05:25:32.929Z,-2.53
2019-01-04T05:26:32.928Z,-2.60
2019-01-04T05:27:32.922Z,-2.53
2019-01-04T05:28:32.898Z,-2.52
2019-01-04T05:29:32.882Z,-2.53
2019-01-04T05:30:32.875Z,-2.50
2019-01-04T05:31:32.877Z,-2.48
2019-01-04T05:32:32.844Z,-2.50
2019-01-04T05:33:32.861Z,-2.48
2019-01-04T05:34:32.856Z,-2.48
2019-01-04T05:35:32.815Z,-2.52
2019-01-04T05:36:32.820Z,-2.50
2019-01-04T05:37:32.797Z,-2.42
2019-01-04T05:38:32.786Z,-2.37
2019-01-04T05:39:32.803Z,-2.43
2019-01-04T05:40:32.757Z,-2.37
2019-01-04T05:41:32.784Z,-2.39
2019-01-04T05:42:32.741Z,-2.40
2019-01-04T05:43:32.734Z,-2.37
2019-01-04T05:44:32.716Z,-2.39
2019-01-04T05:45:32.724Z,-2.32
2019-01-04T05:46:32.699Z,-2.35
2019-01-04T05:47:32.692Z,-2.29
2019-01-04T05:48:32.678Z,-2.34
2019-01-04T05:49:32.664Z,-2.39
2019-01-04T05:50:32.650Z,-2.32
2019-01-04T05:51:32.637Z,-2.40
2019-01-04T05:52:32.653Z,-2.35
2019-01-04T05:53:32.639Z,-2.39
2019-01-04T05:54:32.607Z,-2.37
2019-01-04T05:55:32.596Z,-2.21
2019-01-04T05:56:32.579Z,-2.29
2019-01-04T05:57:32.573Z,-2.24
2019-01-04T05:58:32.579Z,-2.23
2019-01-04T05:59:32.569Z,-2.40
2019-01-04T06:00:32.588Z,-2.32
2019-01-04T06:01:32.531Z,-2.24
2019-01-04T06:02:32.514Z,-2.20
2019-01-04T06:03:32.522Z,-2.29
2019-01-04T06:04:32.502Z,-2.23
2019-01-04T06:05:32.508Z,-2.27
2019-01-04T06:06:32.473Z,-2.24
2019-01-04T06:07:32.462Z,-2.27
2019-01-04T06:08:32.451Z,-2.21
2019-01-04T06:09:32.449Z,-2.21
2019-01-04T06:10:32.426Z,-2.20
2019-01-04T06:11:32.429Z,-2.30
2019-01-04T06:12:32.401Z,-2.16
2019-01-04T06:13:32.391Z,-2.21
2019-01-04T06:14:32.394Z,-2.26
2019-01-04T06:15:32.374Z,-2.15
2019-01-04T06:16:32.363Z,-2.20
2019-01-04T06:17:32.361Z,-2.12
2019-01-04T06:18:32.338Z,-2.15
2019-01-04T06:19:32.340Z,-2.16
2019-01-04T06:20:32.312Z,-2.09
2019-01-04T06:21:32.300Z,-2.06
2019-01-04T06:22:32.292Z,-2.08
2019-01-04T06:23:32.294Z,-2.13
2019-01-04T06:24:32.268Z,-2.10
2019-01-04T06:25:32.282Z,-2.06
2019-01-04T06:26:32.249Z,-1.97
2019-01-04T06:27:32.239Z,-2.09
2019-01-04T06:28:32.226Z,-1.91
2019-01-04T06:29:32.235Z,-2.02
2019-01-04T06:30:32.204Z,-1.91
2019-01-04T06:31:32.211Z,-1.95
2019-01-04T06:32:33.127Z,-1.95
2019-01-04T06:33:32.172Z,-1.94
2019-01-04T06:34:33.086Z,-1.94
2019-01-04T06:35:32.148Z,-1.92
2019-01-04T06:36:32.150Z,-1.97
2019-01-04T06:37:32.125Z,-1.97
2019-01-04T06:38:32.104Z,-1.97
2019-01-04T06:39:32.103Z,-1.97
2019-01-04T06:40:32.115Z,-1.95
2019-01-04T06:41:32.095Z,-2.02
2019-01-04T06:42:32.075Z,-1.98
2019-01-04T06:43:32.060Z,-1.92
2019-01-04T06:44:32.044Z,-1.92
2019-01-04T06:45:32.027Z,-1.94
2019-01-04T06:46:32.068Z,-1.92
2019-01-04T06:47:32.013Z,-1.92
2019-01-04T06:48:32.005Z,-1.95
2019-01-04T06:49:31.992Z,-1.97
2019-01-04T06:50:31.979Z,-1.91
2019-01-04T06:51:31.967Z,-1.92
2019-01-04T06:52:32.007Z,-1.95
2019-01-04T06:53:31.945Z,-1.88
2019-01-04T06:54:31.931Z,-1.82
2019-01-04T06:55:31.923Z,-1.79
2019-01-04T06:56:31.910Z,-1.87
2019-01-04T06:57:31.898Z,-1.76
2019-01-04T06:58:32.175Z,-1.77
2019-01-04T06:59:31.882Z,-1.79
2019-01-04T07:00:31.867Z,-1.82
2019-01-04T07:01:31.854Z,-1.79
2019-01-04T07:02:31.844Z,-1.80
2019-01-04T07:03:31.837Z,-1.74
2019-01-04T07:04:31.860Z,-1.74
2019-01-04T07:05:31.875Z,-1.69
2019-01-04T07:06:31.806Z,-1.77
2019-01-04T07:07:31.791Z,-1.72
2019-01-04T07:08:31.788Z,-1.67
2019-01-04T07:09:31.790Z,-1.79
2019-01-04T07:10:31.822Z,-1.69
2019-01-04T07:11:31.743Z,-1.69
2019-01-04T07:12:31.735Z,-1.67
2019-01-04T07:13:31.727Z,-1.66
2019-01-04T07:14:31.735Z,-1.67
2019-01-04T07:15:31.707Z,-1.72
2019-01-04T07:16:31.707Z,-1.67
2019-01-04T07:17:31.680Z,-1.67
2019-01-04T07:18:31.670Z,-1.66
2019-01-04T07:19:31.665Z,-1.61
2019-01-04T07:20:31.674Z,-1.59
2019-01-04T07:21:31.633Z,-1.58
2019-01-04T07:22:31.642Z,-1.61
2019-01-04T07:23:31.605Z,-1.56
2019-01-04T07:24:31.601Z,-1.66
2019-01-04T07:25:31.586Z,-1.62
2019-01-04T07:26:31.582Z,-1.56
2019-01-04T07:27:31.570Z,-1.54
2019-01-04T07:28:31.579Z,-1.54
2019-01-04T07:29:31.545Z,-1.52
2019-01-04T07:30:31.535Z,-1.58
2019-01-04T07:31:31.531Z,-1.56
2019-01-04T07:32:31.510Z,-1.52
2019-01-04T07:33:31.499Z,-1.48
2019-01-04T07:34:31.527Z,-1.46
2019-01-04T07:35:31.478Z,-1.48
2019-01-04T07:36:31.479Z,-1.40
2019-01-04T07:37:31.458Z,-1.40
2019-01-04T07:38:31.448Z,-1.38
2019-01-04T07:39:31.429Z,-1.48
2019-01-04T07:40:31.440Z,-1.37
2019-01-04T07:41:31.424Z,-1.34
2019-01-04T07:42:31.398Z,-1.40
2019-01-04T07:43:31.391Z,-1.45
2019-01-04T07:44:31.376Z,-1.38
2019-01-04T07:45:31.371Z,-1.34
2019-01-04T07:46:31.395Z,-1.34
2019-01-04T07:47:31.342Z,-1.41
2019-01-04T07:48:31.340Z,-1.33
2019-01-04T07:49:31.319Z,-1.31
2019-01-04T07:50:31.312Z,-1.28
2019-01-04T07:51:31.317Z,-1.30
2019-01-04T07:52:31.309Z,-1.25
2019-01-04T07:53:31.280Z,-1.28
2019-01-04T07:54:31.269Z,-1.25
2019-01-04T07:55:31.250Z,-1.35
2019-01-04T07:56:31.240Z,-1.30
2019-01-04T07:57:31.258Z,-1.22
2019-01-04T07:58:31.234Z,-1.30
2019-01-04T07:59:31.215Z,-1.25
2019-01-04T08:00:31.198Z,-1.16
2019-01-04T08:01:31.191Z,-1.15
2019-01-04T08:02:31.181Z,-1.07
2019-01-04T08:03:31.184Z,-1.12
2019-01-04T08:04:31.171Z,-1.13
2019-01-04T08:05:31.140Z,-1.13
2019-01-04T08:06:31.129Z,-1.05
2019-01-04T08:07:31.129Z,-1.15
2019-01-04T08:08:31.131Z,-1.04
2019-01-04T08:09:31.103Z,-1.10
2019-01-04T08:10:31.109Z,-1.05
2019-01-04T08:11:31.075Z,-1.12
2019-01-04T08:12:31.073Z,-1.09
2019-01-04T08:13:31.061Z,-1.13
2019-01-04T08:14:31.047Z,-1.05
2019-01-04T08:15:31.027Z,-1.09
2019-01-04T08:16:31.035Z,-1.16
2019-01-04T08:17:31.009Z,-1.10
2019-01-04T08:18:30.998Z,-1.19
2019-01-04T08:19:31.011Z,-1.09
2019-01-04T08:20:30.972Z,-1.07
2019-01-04T08:21:30.962Z,-1.07
2019-01-04T08:22:30.972Z,-1.09
2019-01-04T08:23:30.940Z,-1.22
2019-01-04T08:24:30.932Z,-1.07
2019-01-04T08:25:30.939Z,-1.10
2019-01-04T08:26:30.906Z,-1.05
2019-01-04T08:27:30.903Z,-1.07
2019-01-04T08:28:30.909Z,-1.10
2019-01-04T08:29:30.876Z,-1.15
2019-01-04T08:30:30.897Z,-1.09
2019-01-04T08:31:30.854Z,-1.07
2019-01-04T08:32:30.842Z,-1.12
2019-01-04T08:33:30.825Z,-1.07
2019-01-04T08:34:30.895Z,-1.07
2019-01-04T08:35:30.810Z,-1.09
2019-01-04T08:36:30.817Z,-1.07
2019-01-04T08:37:30.787Z,-1.09
2019-01-04T08:38:30.778Z,-0.94
2019-01-04T08:39:30.762Z,-0.94
2019-01-04T08:40:30.777Z,-0.95
2019-01-04T08:41:30.756Z,-0.92
2019-01-04T08:42:30.729Z,-0.92
2019-01-04T08:43:30.721Z,-0.85
2019-01-04T08:44:30.708Z,-0.91
2019-01-04T08:45:30.701Z,-0.97
2019-01-04T08:46:30.722Z,-0.99
2019-01-04T08:47:30.669Z,-0.98
2019-01-04T08:48:30.663Z,-1.01
2019-01-04T08:49:30.651Z,-0.94
2019-01-04T08:50:30.641Z,-1.02
2019-01-04T08:51:30.648Z,-1.04
2019-01-04T08:52:30.636Z,-1.01
2019-01-04T08:53:30.607Z,-1.01
2019-01-04T08:54:30.599Z,-0.99
2019-01-04T08:55:30.585Z,-1.01
2019-01-04T08:56:30.600Z,-1.05
2019-01-04T08:57:30.567Z,-0.99
2019-01-04T08:58:30.580Z,-1.02
2019-01-04T08:59:30.544Z,-1.04
2019-01-04T09:00:30.531Z,-0.99
2019-01-04T09:01:30.519Z,-1.02
2019-01-04T09:02:30.533Z,-0.97
2019-01-04T09:03:30.499Z,-0.99
2019-01-04T09:04:30.507Z,-1.05
2019-01-04T09:05:30.474Z,-1.05
2019-01-04T09:06:30.470Z,-1.01
2019-01-04T09:07:30.472Z,-1.01
2019-01-04T09:08:30.441Z,-0.99
2019-01-04T09:09:30.434Z,-1.04
2019-01-04T09:10:30.441Z,-1.01
2019-01-04T09:11:30.419Z,-1.01
2019-01-04T09:12:30.426Z,-1.09
2019-01-04T09:13:30.391Z,-0.98
2019-01-04T09:14:30.377Z,-0.98
2019-01-04T09:15:30.367Z,-1.01
2019-01-04T09:16:30.376Z,-1.01
2019-01-04T09:17:30.352Z,-1.02
2019-01-04T09:18:30.337Z,-0.98
2019-01-04T09:19:30.316Z,-1.04
2019-01-04T09:20:30.312Z,-0.94
2019-01-04T09:21:30.300Z,-0.97
2019-01-04T09:22:30.327Z,-1.04
2019-01-04T09:23:30.278Z,-0.99
2019-01-04T09:24:30.262Z,-1.09
2019-01-04T09:25:30.250Z,-1.09
2019-01-04T09:26:30.249Z,-1.01
2019-01-04T09:27:30.420Z,-0.99
2019-01-04T09:28:30.240Z,-1.02
2019-01-04T09:29:30.211Z,-1.07
2019-01-04T09:30:30.193Z,-1.05
2019-01-04T09:31:30.196Z,-1.04
2019-01-04T09:32:30.182Z,-0.98
2019-01-04T09:33:30.191Z,-0.95
2019-01-04T09:34:30.176Z,-0.95
2019-01-04T09:35:30.139Z,-0.95
2019-01-04T09:36:30.130Z,-0.97
2019-01-04T09:37:30.138Z,-0.94
2019-01-04T09:38:30.114Z,-0.95
2019-01-04T09:39:30.109Z,-0.97
2019-01-04T09:40:30.109Z,-0.91
2019-01-04T09:41:30.074Z,-0.91
2019-01-04T09:42:30.065Z,-0.91
2019-01-04T09:43:30.054Z,-0.85
2019-01-04T09:44:30.075Z,-0.86
2019-01-04T09:45:30.054Z,-0.95
2019-01-04T09:46:31.163Z,-0.91
2019-01-04T09:47:30.013Z,-0.86
2019-01-04T09:48:30.000Z,-0.85
2019-01-04T09:49:29.994Z,-0.94
2019-01-04T09:50:29.989Z,-0.89
2019-01-04T09:51:30.003Z,-0.99
2019-01-04T09:52:29.951Z,-0.95
2019-01-04T09:53:29.944Z,-0.95
2019-01-04T09:54:29.931Z,-0.97
2019-01-04T09:55:29.938Z,-1.04
2019-01-04T09:56:29.912Z,-0.95
2019-01-04T09:57:29.919Z,-0.97
2019-01-04T09:58:29.890Z,-0.92
2019-01-04T09:59:29.879Z,-0.94
2019-01-04T10:00:29.877Z,-0.89
2019-01-04T10:01:29.862Z,-0.89
2019-01-04T10:02:29.841Z,-0.86
2019-01-04T10:03:29.855Z,-0.82
2019-01-04T10:04:29.822Z,-0.75
2019-01-04T10:05:29.823Z,-0.83
2019-01-04T10:06:29.803Z,-0.78
2019-01-04T10:07:29.786Z,-0.82
2019-01-04T10:08:29.786Z,-0.89
2019-01-04T10:09:29.784Z,-0.92
2019-01-04T10:10:29.767Z,-0.83
2019-01-04T10:11:29.750Z,-0.92
2019-01-04T10:12:29.731Z,-0.82
2019-01-04T10:13:29.730Z,-0.95
2019-01-04T10:14:29.709Z,-1.01
2019-01-04T10:15:29.739Z,-0.95
2019-01-04T10:16:29.692Z,-0.89
2019-01-04T10:17:29.679Z,-0.99
2019-01-04T10:18:29.669Z,-0.98
2019-01-04T10:19:29.656Z,-0.82
2019-01-04T10:20:29.653Z,-0.80
2019-01-04T10:21:29.650Z,-0.78
2019-01-04T10:22:29.621Z,-0.80
2019-01-04T10:23:29.612Z,-0.72
2019-01-04T10:24:29.605Z,-0.70
2019-01-04T10:25:29.613Z,-0.75
2019-01-04T10:26:29.580Z,-0.70
2019-01-04T10:27:29.596Z,-0.67
2019-01-04T10:28:29.548Z,-0.65
2019-01-04T10:29:29.546Z,-0.64
2019-01-04T10:30:29.541Z,-0.75
2019-01-04T10:31:29.556Z,-0.72
2019-01-04T10:32:29.512Z,-0.70
2019-01-04T10:33:29.523Z,-0.69
2019-01-04T10:34:29.485Z,-0.73
2019-01-04T10:35:29.477Z,-0.67
2019-01-04T10:36:29.467Z,-0.72
2019-01-04T10:37:29.468Z,-0.73
2019-01-04T10:38:29.445Z,-0.69
2019-01-04T10:39:29.446Z,-0.73
2019-01-04T10:40:29.420Z,-0.70
2019-01-04T10:41:29.415Z,-0.58
2019-01-04T10:42:29.434Z,-0.69
2019-01-04T10:43:29.393Z,-0.58
2019-01-04T10:44:29.372Z,-0.58
2019-01-04T10:45:29.399Z,-0.60
2019-01-04T10:46:29.353Z,-0.65
2019-01-04T10:47:29.346Z,-0.55
2019-01-04T10:48:29.361Z,-0.55
2019-01-04T10:49:29.324Z,-0.42
2019-01-04T10:50:29.309Z,-0.49
2019-01-04T10:51:29.323Z,-0.61
2019-01-04T10:52:29.298Z,-0.46
2019-01-04T10:53:29.279Z,-0.46
2019-01-04T10:54:29.278Z,-0.60
2019-01-04T10:55:29.252Z,-0.58
2019-01-04T10:56:29.242Z,-0.55
2019-01-04T10:57:29.253Z,-0.54
2019-01-04T10:58:29.231Z,-0.62
2019-01-04T10:59:29.238Z,-0.64
2019-01-04T11:00:29.208Z,-0.60
2019-01-04T11:01:29.193Z,-0.52
2019-01-04T11:02:29.185Z,-0.64
2019-01-04T11:03:29.208Z,-0.55
2019-01-04T11:04:29.159Z,-0.55
2019-01-04T11:05:29.176Z,-0.47
2019-01-04T11:06:29.133Z,-0.49
2019-01-04T11:07:29.122Z,-0.51
2019-01-04T11:08:29.131Z,-0.51
2019-01-04T11:09:29.099Z,-0.54
2019-01-04T11:10:29.095Z,-0.49
2019-01-04T11:11:29.117Z,-0.55
2019-01-04T11:12:29.068Z,-0.46
2019-01-04T11:13:29.057Z,-0.58
2019-01-04T11:14:29.065Z,-0.52
2019-01-04T11:15:29.062Z,-0.54
2019-01-04T11:16:29.045Z,-0.60
2019-01-04T11:17:29.017Z,-0.49
2019-01-04T11:18:29.005Z,-0.58
2019-01-04T11:19:28.997Z,-0.52
2019-01-04T11:20:28.980Z,-0.57
2019-01-04T11:21:28.988Z,-0.57
2019-01-04T11:22:29.076Z,-0.55
2019-01-04T11:23:28.949Z,-0.55
2019-01-04T11:24:28.935Z,-0.64
2019-01-04T11:25:28.920Z,-0.57
2019-01-04T11:26:28.957Z,-0.51
2019-01-04T11:27:28.922Z,-0.51
2019-01-04T11:28:28.912Z,-0.55
2019-01-04T11:29:28.875Z,-0.51
2019-01-04T11:30:29.563Z,-0.49
2019-01-04T11:31:28.854Z,-0.49
2019-01-04T11:32:28.848Z,-0.54
2019-01-04T11:33:28.866Z,-0.49
2019-01-04T11:34:28.836Z,-0.65
2019-01-04T11:35:28.817Z,-0.62
2019-01-04T11:36:28.808Z,-0.61
2019-01-04T11:37:28.793Z,-0.60
2019-01-04T11:38:28.778Z,-0.46
2019-01-04T11:39:28.811Z,-0.55
2019-01-04T11:40:28.755Z,-0.40
2019-01-04T11:41:28.748Z,-0.39
2019-01-04T11:42:28.768Z,-0.39
2019-01-04T11:43:28.720Z,-0.42
2019-01-04T11:44:28.712Z,-0.49
2019-01-04T11:45:28.741Z,-0.51
2019-01-04T11:46:28.691Z,-0.42
2019-01-04T11:47:28.680Z,-0.44
2019-01-04T11:48:28.666Z,-0.44
2019-01-04T11:49:28.661Z,-0.39
2019-01-04T11:50:28.675Z,-0.51
2019-01-04T11:51:28.661Z,-0.39
2019-01-04T11:52:31.283Z,-0.46
2019-01-04T11:53:28.618Z,-0.36
2019-01-04T11:54:28.597Z,-0.42
2019-01-04T11:55:28.600Z,-0.36
2019-01-04T11:56:28.594Z,-0.40
2019-01-04T11:57:28.586Z,-0.37
2019-01-04T11:58:28.554Z,-0.36
2019-01-04T11:59:28.542Z,-0.37
2019-01-04T12:00:28.539Z,-0.39
2019-01-04T12:01:28.543Z,-0.37
2019-01-04T12:02:28.518Z,-0.37
2019-01-04T12:03:28.506Z,-0.34
2019-01-04T12:04:28.508Z,-0.31
2019-01-04T12:05:28.483Z,-0.23
2019-01-04T12:06:28.474Z,-0.26
2019-01-04T12:07:28.477Z,-0.31
2019-01-04T12:08:28.441Z,-0.26
2019-01-04T12:09:28.434Z,-0.23
2019-01-04T12:10:28.445Z,-0.28
2019-01-04T12:11:28.419Z,-0.34
2019-01-04T12:12:28.408Z,-0.28
2019-01-04T12:13:28.403Z,-0.25
2019-01-04T12:14:28.386Z,-0.28
2019-01-04T12:15:28.371Z,-0.28
2019-01-04T12:16:28.379Z,-0.26
2019-01-04T12:17:28.345Z,-0.31
2019-01-04T12:18:28.349Z,-0.21
2019-01-04T12:19:28.328Z,-0.31
2019-01-04T12:20:28.311Z,-0.29
2019-01-04T12:21:28.300Z,-0.26
2019-01-04T12:22:28.319Z,-0.26
2019-01-04T12:23:28.317Z,-0.23
2019-01-04T12:24:28.274Z,-0.22
2019-01-04T12:25:28.258Z,-0.29
2019-01-04T12:26:28.246Z,-0.18
2019-01-04T12:27:28.238Z,-0.21
2019-01-04T12:28:28.268Z,-0.26
2019-01-04T12:29:28.220Z,-0.18
2019-01-04T12:30:28.206Z,-0.16
2019-01-04T12:31:28.197Z,-0.18
2019-01-04T12:32:28.190Z,-0.23
2019-01-04T12:33:28.169Z,-0.22
2019-01-04T12:34:28.203Z,-0.25
2019-01-04T12:35:28.144Z,-0.23
2019-01-04T12:36:28.133Z,-0.16
2019-01-04T12:37:28.118Z,-0.15
2019-01-04T12:38:28.113Z,-0.08
2019-01-04T12:39:28.102Z,-0.14
2019-01-04T12:40:28.127Z,-0.19
2019-01-04T12:41:28.079Z,-0.15
2019-01-04T12:42:28.073Z,-0.03
2019-01-04T12:43:28.067Z,-0.03
2019-01-04T12:44:28.045Z,-0.04
2019-01-04T12:45:28.067Z,-0.04
2019-01-04T12:46:28.045Z,-0.05
2019-01-04T12:47:28.010Z,0.00
2019-01-04T12:48:28.001Z,-0.05
2019-01-04T12:49:27.991Z,-0.08
2019-01-04T12:50:27.988Z,-0.16
2019-01-04T12:51:27.979Z,-0.15
2019-01-04T12:52:27.991Z,-0.10